sensor_id;sensor_type;location;lat;lon;timestamp;P1;durP1;ratioP1;P2;durP2;ratioP2
73359;SDS011;63092;43.582;19.528;2022-12-20T00:01:22;77.75;;;32.22;;
73359;SDS011;63092;43.582;19.528;2022-12-20T00:03:51;72.05;;;31.90;;
73359;SDS011;63092;43.582;19.528;2022-12-20T00:06:18;76.60;;;31.38;;
73359;SDS011;63092;43.582;19.528;2022-12-20T00:08:46;71.63;;;29.73;;
73359;SDS011;63092;43.582;19.528;2022-12-20T00:11:17;66.97;;;28.88;;
73359;SDS011;63092;43.582;19.528;2022-12-20T00:13:44;75.13;;;29.83;;
73359;SDS011;63092;43.582;19.528;2022-12-20T00:16:11;76.60;;;30.42;;
73359;SDS011;63092;43.582;19.528;2022-12-20T00:18:39;74.82;;;30.17;;
73359;SDS011;63092;43.582;19.528;2022-12-20T00:21:06;101.43;;;36.95;;
73359;SDS011;63092;43.582;19.528;2022-12-20T00:23:33;97.70;;;36.33;;
73359;SDS011;63092;43.582;19.528;2022-12-20T00:26:03;68.50;;;28.23;;
73359;SDS011;63092;43.582;19.528;2022-12-20T00:28:30;64.88;;;28.20;;
73359;SDS011;63092;43.582;19.528;2022-12-20T00:30:56;67.82;;;28.77;;
73359;SDS011;63092;43.582;19.528;2022-12-20T00:33:22;78.95;;;30.92;;
73359;SDS011;63092;43.582;19.528;2022-12-20T00:35:49;72.80;;;31.58;;
73359;SDS011;63092;43.582;19.528;2022-12-20T00:38:15;67.28;;;29.67;;
73359;SDS011;63092;43.582;19.528;2022-12-20T00:40:41;64.25;;;27.98;;
73359;SDS011;63092;43.582;19.528;2022-12-20T00:43:07;62.67;;;26.27;;
73359;SDS011;63092;43.582;19.528;2022-12-20T00:45:32;59.05;;;24.95;;
73359;SDS011;63092;43.582;19.528;2022-12-20T00:47:58;53.97;;;23.20;;
73359;SDS011;63092;43.582;19.528;2022-12-20T00:50:24;57.22;;;23.95;;
73359;SDS011;63092;43.582;19.528;2022-12-20T00:52:50;61.17;;;24.42;;
73359;SDS011;63092;43.582;19.528;2022-12-20T00:55:15;50.05;;;22.05;;
73359;SDS011;63092;43.582;19.528;2022-12-20T00:57:41;50.92;;;21.80;;
73359;SDS011;63092;43.582;19.528;2022-12-20T01:00:07;53.42;;;22.73;;
73359;SDS011;63092;43.582;19.528;2022-12-20T01:02:33;51.65;;;24.48;;
73359;SDS011;63092;43.582;19.528;2022-12-20T01:04:59;48.97;;;22.95;;
73359;SDS011;63092;43.582;19.528;2022-12-20T01:07:25;53.80;;;24.05;;
73359;SDS011;63092;43.582;19.528;2022-12-20T01:09:50;52.50;;;22.90;;
73359;SDS011;63092;43.582;19.528;2022-12-20T01:12:16;59.40;;;23.95;;
73359;SDS011;63092;43.582;19.528;2022-12-20T01:14:42;49.75;;;21.88;;
73359;SDS011;63092;43.582;19.528;2022-12-20T01:17:08;49.70;;;20.88;;
73359;SDS011;63092;43.582;19.528;2022-12-20T01:19:34;47.20;;;20.17;;
73359;SDS011;63092;43.582;19.528;2022-12-20T01:21:59;43.10;;;19.40;;
73359;SDS011;63092;43.582;19.528;2022-12-20T01:24:26;46.97;;;20.08;;
73359;SDS011;63092;43.582;19.528;2022-12-20T01:26:51;47.20;;;20.20;;
73359;SDS011;63092;43.582;19.528;2022-12-20T01:29:17;39.97;;;20.23;;
73359;SDS011;63092;43.582;19.528;2022-12-20T01:31:43;45.55;;;20.95;;
73359;SDS011;63092;43.582;19.528;2022-12-20T01:34:09;42.17;;;17.30;;
73359;SDS011;63092;43.582;19.528;2022-12-20T01:36:35;43.35;;;18.23;;
73359;SDS011;63092;43.582;19.528;2022-12-20T01:39:04;35.25;;;17.27;;
73359;SDS011;63092;43.582;19.528;2022-12-20T01:41:36;49.15;;;22.05;;
73359;SDS011;63092;43.582;19.528;2022-12-20T01:44:04;39.05;;;19.10;;
73359;SDS011;63092;43.582;19.528;2022-12-20T01:46:51;40.85;;;19.48;;
73359;SDS011;63092;43.582;19.528;2022-12-20T01:52:30;34.45;;;15.18;;
73359;SDS011;63092;43.582;19.528;2022-12-20T01:55:08;32.38;;;14.98;;
73359;SDS011;63092;43.582;19.528;2022-12-20T01:57:51;29.20;;;14.75;;
73359;SDS011;63092;43.582;19.528;2022-12-20T02:00:20;28.83;;;13.57;;
73359;SDS011;63092;43.582;19.528;2022-12-20T02:02:46;31.67;;;14.65;;
73359;SDS011;63092;43.582;19.528;2022-12-20T02:05:14;33.10;;;15.07;;
73359;SDS011;63092;43.582;19.528;2022-12-20T02:07:41;26.38;;;13.05;;
73359;SDS011;63092;43.582;19.528;2022-12-20T02:10:08;28.80;;;14.10;;
73359;SDS011;63092;43.582;19.528;2022-12-20T02:12:45;26.92;;;13.50;;
73359;SDS011;63092;43.582;19.528;2022-12-20T02:23:56;27.23;;;12.77;;
73359;SDS011;63092;43.582;19.528;2022-12-20T02:30:31;22.00;;;10.85;;
73359;SDS011;63092;43.582;19.528;2022-12-20T02:35:22;21.88;;;10.80;;
73359;SDS011;63092;43.582;19.528;2022-12-20T02:37:52;25.52;;;12.45;;
73359;SDS011;63092;43.582;19.528;2022-12-20T02:40:33;24.52;;;13.00;;
73359;SDS011;63092;43.582;19.528;2022-12-20T02:43:04;22.17;;;10.77;;
73359;SDS011;63092;43.582;19.528;2022-12-20T02:45:53;24.00;;;11.07;;
73359;SDS011;63092;43.582;19.528;2022-12-20T02:48:21;20.52;;;11.43;;
73359;SDS011;63092;43.582;19.528;2022-12-20T02:50:51;28.95;;;12.07;;
73359;SDS011;63092;43.582;19.528;2022-12-20T02:53:20;21.17;;;10.98;;
73359;SDS011;63092;43.582;19.528;2022-12-20T02:58:37;23.42;;;10.75;;
73359;SDS011;63092;43.582;19.528;2022-12-20T03:01:20;23.08;;;11.20;;
73359;SDS011;63092;43.582;19.528;2022-12-20T03:03:49;23.08;;;10.75;;
73359;SDS011;63092;43.582;19.528;2022-12-20T03:06:18;23.20;;;11.00;;
73359;SDS011;63092;43.582;19.528;2022-12-20T03:08:44;21.65;;;11.20;;
73359;SDS011;63092;43.582;19.528;2022-12-20T03:11:11;24.92;;;11.60;;
73359;SDS011;63092;43.582;19.528;2022-12-20T03:13:38;22.35;;;10.90;;
73359;SDS011;63092;43.582;19.528;2022-12-20T03:16:04;30.42;;;13.45;;
73359;SDS011;63092;43.582;19.528;2022-12-20T03:18:30;31.60;;;13.50;;
73359;SDS011;63092;43.582;19.528;2022-12-20T03:20:56;27.50;;;12.43;;
73359;SDS011;63092;43.582;19.528;2022-12-20T03:23:22;25.20;;;12.02;;
73359;SDS011;63092;43.582;19.528;2022-12-20T03:25:48;23.83;;;10.85;;
73359;SDS011;63092;43.582;19.528;2022-12-20T03:28:14;20.95;;;10.90;;
73359;SDS011;63092;43.582;19.528;2022-12-20T03:30:39;22.95;;;10.73;;
73359;SDS011;63092;43.582;19.528;2022-12-20T03:33:05;24.10;;;11.98;;
73359;SDS011;63092;43.582;19.528;2022-12-20T03:35:31;23.77;;;10.77;;
73359;SDS011;63092;43.582;19.528;2022-12-20T03:37:57;21.50;;;10.60;;
73359;SDS011;63092;43.582;19.528;2022-12-20T03:40:22;23.40;;;11.40;;
73359;SDS011;63092;43.582;19.528;2022-12-20T03:42:48;20.55;;;9.90;;
73359;SDS011;63092;43.582;19.528;2022-12-20T03:45:14;21.95;;;10.02;;
73359;SDS011;63092;43.582;19.528;2022-12-20T03:47:40;22.40;;;10.50;;
73359;SDS011;63092;43.582;19.528;2022-12-20T03:50:06;23.58;;;11.15;;
73359;SDS011;63092;43.582;19.528;2022-12-20T03:52:32;25.38;;;10.82;;
73359;SDS011;63092;43.582;19.528;2022-12-20T03:54:58;22.90;;;10.27;;
73359;SDS011;63092;43.582;19.528;2022-12-20T03:57:24;23.63;;;10.23;;
73359;SDS011;63092;43.582;19.528;2022-12-20T03:59:50;22.67;;;10.52;;
73359;SDS011;63092;43.582;19.528;2022-12-20T04:02:16;20.90;;;9.82;;
73359;SDS011;63092;43.582;19.528;2022-12-20T04:04:41;23.10;;;9.90;;
73359;SDS011;63092;43.582;19.528;2022-12-20T04:07:07;22.77;;;10.73;;
73359;SDS011;63092;43.582;19.528;2022-12-20T04:09:33;24.00;;;10.77;;
73359;SDS011;63092;43.582;19.528;2022-12-20T04:11:59;22.88;;;11.00;;
73359;SDS011;63092;43.582;19.528;2022-12-20T04:14:25;20.20;;;9.95;;
73359;SDS011;63092;43.582;19.528;2022-12-20T04:16:51;26.90;;;11.02;;
73359;SDS011;63092;43.582;19.528;2022-12-20T04:19:17;23.20;;;11.30;;
73359;SDS011;63092;43.582;19.528;2022-12-20T04:21:42;25.17;;;11.70;;
73359;SDS011;63092;43.582;19.528;2022-12-20T04:24:08;22.05;;;11.38;;
73359;SDS011;63092;43.582;19.528;2022-12-20T04:26:34;26.15;;;13.10;;
73359;SDS011;63092;43.582;19.528;2022-12-20T04:29:00;23.98;;;10.43;;
73359;SDS011;63092;43.582;19.528;2022-12-20T04:31:26;24.20;;;11.57;;
73359;SDS011;63092;43.582;19.528;2022-12-20T04:33:52;24.10;;;11.45;;
73359;SDS011;63092;43.582;19.528;2022-12-20T04:36:18;23.52;;;10.95;;
73359;SDS011;63092;43.582;19.528;2022-12-20T04:38:44;25.45;;;11.60;;
73359;SDS011;63092;43.582;19.528;2022-12-20T04:41:10;20.33;;;9.77;;
73359;SDS011;63092;43.582;19.528;2022-12-20T04:43:47;20.83;;;10.23;;
73359;SDS011;63092;43.582;19.528;2022-12-20T04:46:14;19.48;;;9.77;;
73359;SDS011;63092;43.582;19.528;2022-12-20T04:48:39;20.30;;;9.88;;
73359;SDS011;63092;43.582;19.528;2022-12-20T04:51:05;22.48;;;10.13;;
73359;SDS011;63092;43.582;19.528;2022-12-20T04:53:31;21.33;;;9.90;;
73359;SDS011;63092;43.582;19.528;2022-12-20T04:56:13;21.83;;;10.82;;
73359;SDS011;63092;43.582;19.528;2022-12-20T04:58:40;23.70;;;11.13;;
73359;SDS011;63092;43.582;19.528;2022-12-20T05:01:06;22.75;;;10.00;;
73359;SDS011;63092;43.582;19.528;2022-12-20T05:03:32;21.15;;;10.10;;
73359;SDS011;63092;43.582;19.528;2022-12-20T05:05:58;23.17;;;9.68;;
73359;SDS011;63092;43.582;19.528;2022-12-20T05:08:23;21.10;;;10.93;;
73359;SDS011;63092;43.582;19.528;2022-12-20T05:10:49;21.30;;;9.15;;
73359;SDS011;63092;43.582;19.528;2022-12-20T05:13:15;23.17;;;10.80;;
73359;SDS011;63092;43.582;19.528;2022-12-20T05:15:41;28.15;;;12.88;;
73359;SDS011;63092;43.582;19.528;2022-12-20T05:18:07;23.38;;;10.68;;
73359;SDS011;63092;43.582;19.528;2022-12-20T05:20:33;23.52;;;10.75;;
73359;SDS011;63092;43.582;19.528;2022-12-20T05:22:59;48.53;;;22.58;;
73359;SDS011;63092;43.582;19.528;2022-12-20T05:25:44;25.02;;;11.10;;
73359;SDS011;63092;43.582;19.528;2022-12-20T05:28:30;21.20;;;10.90;;
73359;SDS011;63092;43.582;19.528;2022-12-20T05:30:56;63.08;;;32.20;;
73359;SDS011;63092;43.582;19.528;2022-12-20T05:33:22;56.38;;;26.95;;
73359;SDS011;63092;43.582;19.528;2022-12-20T05:35:48;56.88;;;31.00;;
73359;SDS011;63092;43.582;19.528;2022-12-20T05:38:14;36.58;;;20.00;;
73359;SDS011;63092;43.582;19.528;2022-12-20T05:40:40;61.80;;;32.92;;
73359;SDS011;63092;43.582;19.528;2022-12-20T05:43:06;41.83;;;21.80;;
73359;SDS011;63092;43.582;19.528;2022-12-20T05:45:32;27.42;;;13.55;;
73359;SDS011;63092;43.582;19.528;2022-12-20T05:47:59;43.30;;;21.60;;
73359;SDS011;63092;43.582;19.528;2022-12-20T05:50:25;27.90;;;13.40;;
73359;SDS011;63092;43.582;19.528;2022-12-20T05:52:50;26.80;;;11.60;;
73359;SDS011;63092;43.582;19.528;2022-12-20T05:55:16;33.15;;;16.77;;
73359;SDS011;63092;43.582;19.528;2022-12-20T05:57:42;30.35;;;14.35;;
73359;SDS011;63092;43.582;19.528;2022-12-20T06:00:08;60.20;;;31.75;;
73359;SDS011;63092;43.582;19.528;2022-12-20T06:02:34;39.90;;;20.40;;
73359;SDS011;63092;43.582;19.528;2022-12-20T06:05:00;29.27;;;13.23;;
73359;SDS011;63092;43.582;19.528;2022-12-20T06:07:26;25.65;;;12.65;;
73359;SDS011;63092;43.582;19.528;2022-12-20T06:09:53;25.55;;;11.35;;
73359;SDS011;63092;43.582;19.528;2022-12-20T06:12:19;24.38;;;12.38;;
73359;SDS011;63092;43.582;19.528;2022-12-20T06:14:45;24.65;;;11.77;;
73359;SDS011;63092;43.582;19.528;2022-12-20T06:17:11;24.50;;;11.65;;
73359;SDS011;63092;43.582;19.528;2022-12-20T06:19:38;24.48;;;12.27;;
73359;SDS011;63092;43.582;19.528;2022-12-20T06:22:07;27.55;;;11.80;;
73359;SDS011;63092;43.582;19.528;2022-12-20T06:24:33;26.17;;;11.90;;
73359;SDS011;63092;43.582;19.528;2022-12-20T06:26:59;32.20;;;15.77;;
73359;SDS011;63092;43.582;19.528;2022-12-20T06:29:26;51.45;;;23.60;;
73359;SDS011;63092;43.582;19.528;2022-12-20T06:31:51;69.00;;;32.67;;
73359;SDS011;63092;43.582;19.528;2022-12-20T06:34:17;65.40;;;28.77;;
73359;SDS011;63092;43.582;19.528;2022-12-20T06:36:44;36.38;;;18.00;;
73359;SDS011;63092;43.582;19.528;2022-12-20T06:39:10;33.50;;;17.55;;
73359;SDS011;63092;43.582;19.528;2022-12-20T06:41:39;34.33;;;15.30;;
73359;SDS011;63092;43.582;19.528;2022-12-20T06:44:05;46.35;;;21.48;;
73359;SDS011;63092;43.582;19.528;2022-12-20T06:46:31;43.53;;;19.90;;
73359;SDS011;63092;43.582;19.528;2022-12-20T06:48:57;29.90;;;12.25;;
73359;SDS011;63092;43.582;19.528;2022-12-20T06:51:24;38.75;;;17.23;;
73359;SDS011;63092;43.582;19.528;2022-12-20T06:53:50;41.05;;;20.63;;
73359;SDS011;63092;43.582;19.528;2022-12-20T06:56:16;45.13;;;23.30;;
73359;SDS011;63092;43.582;19.528;2022-12-20T06:58:42;34.00;;;16.83;;
73359;SDS011;63092;43.582;19.528;2022-12-20T07:01:09;92.88;;;43.50;;
73359;SDS011;63092;43.582;19.528;2022-12-20T07:03:35;36.88;;;18.45;;
73359;SDS011;63092;43.582;19.528;2022-12-20T07:06:00;36.95;;;18.17;;
73359;SDS011;63092;43.582;19.528;2022-12-20T07:08:26;31.13;;;14.27;;
73359;SDS011;63092;43.582;19.528;2022-12-20T07:10:52;35.55;;;17.05;;
73359;SDS011;63092;43.582;19.528;2022-12-20T07:13:18;29.63;;;13.65;;
73359;SDS011;63092;43.582;19.528;2022-12-20T07:15:44;39.90;;;20.35;;
73359;SDS011;63092;43.582;19.528;2022-12-20T07:18:10;29.98;;;13.95;;
73359;SDS011;63092;43.582;19.528;2022-12-20T07:20:36;36.38;;;18.15;;
73359;SDS011;63092;43.582;19.528;2022-12-20T07:23:01;62.00;;;32.55;;
73359;SDS011;63092;43.582;19.528;2022-12-20T07:25:27;50.38;;;26.05;;
73359;SDS011;63092;43.582;19.528;2022-12-20T07:27:53;30.48;;;15.35;;
73359;SDS011;63092;43.582;19.528;2022-12-20T07:30:19;35.00;;;16.85;;
73359;SDS011;63092;43.582;19.528;2022-12-20T07:32:45;27.20;;;12.65;;
73359;SDS011;63092;43.582;19.528;2022-12-20T07:35:12;28.55;;;13.27;;
73359;SDS011;63092;43.582;19.528;2022-12-20T07:37:38;28.30;;;13.73;;
73359;SDS011;63092;43.582;19.528;2022-12-20T07:40:05;28.35;;;12.88;;
73359;SDS011;63092;43.582;19.528;2022-12-20T07:42:32;47.92;;;23.00;;
73359;SDS011;63092;43.582;19.528;2022-12-20T07:44:58;44.88;;;21.95;;
73359;SDS011;63092;43.582;19.528;2022-12-20T07:47:23;27.73;;;13.15;;
73359;SDS011;63092;43.582;19.528;2022-12-20T07:49:49;110.22;;;60.78;;
73359;SDS011;63092;43.582;19.528;2022-12-20T07:52:15;61.40;;;35.30;;
73359;SDS011;63092;43.582;19.528;2022-12-20T07:54:45;47.43;;;23.60;;
73359;SDS011;63092;43.582;19.528;2022-12-20T07:57:15;53.10;;;28.02;;
73359;SDS011;63092;43.582;19.528;2022-12-20T07:59:46;48.28;;;25.60;;
73359;SDS011;63092;43.582;19.528;2022-12-20T08:02:26;38.80;;;19.70;;
73359;SDS011;63092;43.582;19.528;2022-12-20T08:04:59;34.78;;;18.02;;
73359;SDS011;63092;43.582;19.528;2022-12-20T08:07:27;37.65;;;17.10;;
73359;SDS011;63092;43.582;19.528;2022-12-20T08:09:54;34.22;;;15.82;;
73359;SDS011;63092;43.582;19.528;2022-12-20T08:12:20;30.75;;;15.88;;
73359;SDS011;63092;43.582;19.528;2022-12-20T08:14:47;29.80;;;14.35;;
73359;SDS011;63092;43.582;19.528;2022-12-20T08:17:16;33.97;;;15.50;;
73359;SDS011;63092;43.582;19.528;2022-12-20T08:19:42;33.20;;;15.80;;
73359;SDS011;63092;43.582;19.528;2022-12-20T08:22:08;32.42;;;15.77;;
73359;SDS011;63092;43.582;19.528;2022-12-20T08:24:33;32.30;;;16.45;;
73359;SDS011;63092;43.582;19.528;2022-12-20T08:26:59;33.53;;;15.88;;
73359;SDS011;63092;43.582;19.528;2022-12-20T08:29:25;37.13;;;17.10;;
73359;SDS011;63092;43.582;19.528;2022-12-20T08:31:51;50.83;;;28.05;;
73359;SDS011;63092;43.582;19.528;2022-12-20T08:34:16;50.50;;;26.08;;
73359;SDS011;63092;43.582;19.528;2022-12-20T08:36:43;44.65;;;22.75;;
73359;SDS011;63092;43.582;19.528;2022-12-20T08:39:09;37.83;;;19.75;;
73359;SDS011;63092;43.582;19.528;2022-12-20T08:41:35;40.67;;;19.50;;
73359;SDS011;63092;43.582;19.528;2022-12-20T08:44:02;34.90;;;16.95;;
73359;SDS011;63092;43.582;19.528;2022-12-20T08:46:29;49.65;;;22.75;;
73359;SDS011;63092;43.582;19.528;2022-12-20T08:48:55;56.25;;;29.67;;
73359;SDS011;63092;43.582;19.528;2022-12-20T08:51:20;122.40;;;50.08;;
73359;SDS011;63092;43.582;19.528;2022-12-20T08:53:46;49.58;;;24.85;;
73359;SDS011;63092;43.582;19.528;2022-12-20T08:56:13;39.42;;;18.88;;
73359;SDS011;63092;43.582;19.528;2022-12-20T08:58:40;43.88;;;21.65;;
73359;SDS011;63092;43.582;19.528;2022-12-20T09:01:08;48.85;;;25.05;;
73359;SDS011;63092;43.582;19.528;2022-12-20T09:03:35;55.85;;;30.70;;
73359;SDS011;63092;43.582;19.528;2022-12-20T09:06:05;45.63;;;21.92;;
73359;SDS011;63092;43.582;19.528;2022-12-20T09:08:33;66.18;;;32.20;;
73359;SDS011;63092;43.582;19.528;2022-12-20T09:11:19;54.58;;;27.77;;
73359;SDS011;63092;43.582;19.528;2022-12-20T09:13:47;37.67;;;18.27;;
73359;SDS011;63092;43.582;19.528;2022-12-20T09:16:16;47.78;;;23.77;;
73359;SDS011;63092;43.582;19.528;2022-12-20T09:18:43;42.72;;;20.85;;
73359;SDS011;63092;43.582;19.528;2022-12-20T09:23:37;44.78;;;20.92;;
73359;SDS011;63092;43.582;19.528;2022-12-20T09:26:04;41.53;;;19.02;;
73359;SDS011;63092;43.582;19.528;2022-12-20T09:28:41;41.05;;;20.45;;
73359;SDS011;63092;43.582;19.528;2022-12-20T09:31:09;41.25;;;20.55;;
73359;SDS011;63092;43.582;19.528;2022-12-20T09:33:37;38.20;;;19.05;;
73359;SDS011;63092;43.582;19.528;2022-12-20T09:36:03;42.67;;;21.00;;
73359;SDS011;63092;43.582;19.528;2022-12-20T09:38:30;51.65;;;26.08;;
73359;SDS011;63092;43.582;19.528;2022-12-20T09:41:05;50.80;;;26.33;;
73359;SDS011;63092;43.582;19.528;2022-12-20T09:43:39;40.22;;;21.40;;
73359;SDS011;63092;43.582;19.528;2022-12-20T09:46:05;39.22;;;19.90;;
73359;SDS011;63092;43.582;19.528;2022-12-20T09:48:36;43.50;;;22.55;;
73359;SDS011;63092;43.582;19.528;2022-12-20T09:53:45;53.03;;;24.23;;
73359;SDS011;63092;43.582;19.528;2022-12-20T09:56:27;46.47;;;24.70;;
73359;SDS011;63092;43.582;19.528;2022-12-20T10:01:31;57.30;;;25.42;;
73359;SDS011;63092;43.582;19.528;2022-12-20T10:04:00;39.85;;;19.50;;
73359;SDS011;63092;43.582;19.528;2022-12-20T10:09:41;31.77;;;18.13;;
73359;SDS011;63092;43.582;19.528;2022-12-20T10:20:27;30.65;;;15.93;;
73359;SDS011;63092;43.582;19.528;2022-12-20T10:23:13;31.67;;;15.98;;
73359;SDS011;63092;43.582;19.528;2022-12-20T10:25:51;48.63;;;27.25;;
73359;SDS011;63092;43.582;19.528;2022-12-20T10:28:22;32.40;;;17.10;;
73359;SDS011;63092;43.582;19.528;2022-12-20T10:31:14;29.00;;;15.15;;
73359;SDS011;63092;43.582;19.528;2022-12-20T10:33:41;34.72;;;19.52;;
73359;SDS011;63092;43.582;19.528;2022-12-20T10:38:55;31.58;;;17.52;;
73359;SDS011;63092;43.582;19.528;2022-12-20T10:41:27;39.53;;;24.55;;
73359;SDS011;63092;43.582;19.528;2022-12-20T10:43:59;28.17;;;17.40;;
73359;SDS011;63092;43.582;19.528;2022-12-20T10:46:33;33.95;;;25.52;;
73359;SDS011;63092;43.582;19.528;2022-12-20T10:52:20;23.83;;;14.20;;
73359;SDS011;63092;43.582;19.528;2022-12-20T10:54:45;22.15;;;11.88;;
73359;SDS011;63092;43.582;19.528;2022-12-20T10:57:21;30.52;;;15.77;;
73359;SDS011;63092;43.582;19.528;2022-12-20T10:59:50;27.00;;;18.05;;
73359;SDS011;63092;43.582;19.528;2022-12-20T11:04:56;24.45;;;13.75;;
73359;SDS011;63092;43.582;19.528;2022-12-20T11:07:58;24.00;;;13.57;;
73359;SDS011;63092;43.582;19.528;2022-12-20T11:10:32;22.52;;;12.35;;
73359;SDS011;63092;43.582;19.528;2022-12-20T11:12:58;23.27;;;12.63;;
73359;SDS011;63092;43.582;19.528;2022-12-20T11:15:32;22.45;;;12.07;;
73359;SDS011;63092;43.582;19.528;2022-12-20T11:23:44;30.40;;;16.48;;
73359;SDS011;63092;43.582;19.528;2022-12-20T11:26:39;23.73;;;12.70;;
73359;SDS011;63092;43.582;19.528;2022-12-20T11:35:09;29.45;;;17.40;;
73359;SDS011;63092;43.582;19.528;2022-12-20T11:38:02;25.17;;;12.45;;
73359;SDS011;63092;43.582;19.528;2022-12-20T11:43:39;18.45;;;10.35;;
73359;SDS011;63092;43.582;19.528;2022-12-20T11:51:47;26.27;;;14.90;;
73359;SDS011;63092;43.582;19.528;2022-12-20T11:57:16;26.70;;;16.23;;
73359;SDS011;63092;43.582;19.528;2022-12-20T11:59:50;21.15;;;11.68;;
73359;SDS011;63092;43.582;19.528;2022-12-20T12:02:36;21.70;;;12.57;;
73359;SDS011;63092;43.582;19.528;2022-12-20T12:05:23;19.48;;;11.10;;
73359;SDS011;63092;43.582;19.528;2022-12-20T12:08:04;20.92;;;11.75;;
73359;SDS011;63092;43.582;19.528;2022-12-20T12:10:35;28.90;;;16.35;;
73359;SDS011;63092;43.582;19.528;2022-12-20T12:13:12;37.45;;;20.35;;
73359;SDS011;63092;43.582;19.528;2022-12-20T12:15:53;70.22;;;31.42;;
73359;SDS011;63092;43.582;19.528;2022-12-20T12:18:29;51.10;;;25.92;;
73359;SDS011;63092;43.582;19.528;2022-12-20T12:26:11;30.85;;;18.27;;
73359;SDS011;63092;43.582;19.528;2022-12-20T12:28:47;81.03;;;37.53;;
73359;SDS011;63092;43.582;19.528;2022-12-20T12:31:20;36.72;;;20.15;;
73359;SDS011;63092;43.582;19.528;2022-12-20T12:36:45;55.92;;;24.02;;
73359;SDS011;63092;43.582;19.528;2022-12-20T12:47:07;22.20;;;12.48;;
73359;SDS011;63092;43.582;19.528;2022-12-20T12:49:45;23.95;;;13.02;;
73359;SDS011;63092;43.582;19.528;2022-12-20T12:53:14;27.25;;;16.30;;
73359;SDS011;63092;43.582;19.528;2022-12-20T13:00:51;26.17;;;15.15;;
73359;SDS011;63092;43.582;19.528;2022-12-20T13:07:24;24.17;;;13.82;;
73359;SDS011;63092;43.582;19.528;2022-12-20T13:11:52;21.67;;;12.48;;
73359;SDS011;63092;43.582;19.528;2022-12-20T13:16:48;30.10;;;19.02;;
73359;SDS011;63092;43.582;19.528;2022-12-20T13:19:16;27.17;;;13.75;;
73359;SDS011;63092;43.582;19.528;2022-12-20T13:27:22;31.75;;;16.38;;
73359;SDS011;63092;43.582;19.528;2022-12-20T13:30:36;39.15;;;22.00;;
73359;SDS011;63092;43.582;19.528;2022-12-20T13:38:02;25.77;;;14.93;;
73359;SDS011;63092;43.582;19.528;2022-12-20T13:43:27;30.98;;;17.73;;
73359;SDS011;63092;43.582;19.528;2022-12-20T13:48:31;30.27;;;17.15;;
73359;SDS011;63092;43.582;19.528;2022-12-20T13:51:19;24.40;;;14.95;;
73359;SDS011;63092;43.582;19.528;2022-12-20T13:53:56;45.33;;;23.55;;
73359;SDS011;63092;43.582;19.528;2022-12-20T13:59:23;81.60;;;36.38;;
73359;SDS011;63092;43.582;19.528;2022-12-20T14:01:52;53.15;;;25.98;;
73359;SDS011;63092;43.582;19.528;2022-12-20T14:04:21;46.75;;;23.20;;
73359;SDS011;63092;43.582;19.528;2022-12-20T14:06:55;38.00;;;20.17;;
73359;SDS011;63092;43.582;19.528;2022-12-20T14:09:31;40.17;;;21.17;;
73359;SDS011;63092;43.582;19.528;2022-12-20T14:12:04;51.97;;;26.83;;
73359;SDS011;63092;43.582;19.528;2022-12-20T14:14:41;43.42;;;23.48;;
73359;SDS011;63092;43.582;19.528;2022-12-20T14:17:25;45.63;;;25.58;;
73359;SDS011;63092;43.582;19.528;2022-12-20T14:20:11;33.63;;;19.65;;
73359;SDS011;63092;43.582;19.528;2022-12-20T14:22:47;54.45;;;28.77;;
73359;SDS011;63092;43.582;19.528;2022-12-20T14:27:56;32.38;;;18.80;;
73359;SDS011;63092;43.582;19.528;2022-12-20T14:30:33;23.55;;;12.95;;
73359;SDS011;63092;43.582;19.528;2022-12-20T14:33:13;26.83;;;15.10;;
73359;SDS011;63092;43.582;19.528;2022-12-20T14:35:52;37.70;;;22.10;;
73359;SDS011;63092;43.582;19.528;2022-12-20T14:38:39;25.42;;;14.25;;
73359;SDS011;63092;43.582;19.528;2022-12-20T14:41:04;34.78;;;17.80;;
73359;SDS011;63092;43.582;19.528;2022-12-20T14:43:53;23.08;;;12.38;;
73359;SDS011;63092;43.582;19.528;2022-12-20T14:46:20;29.83;;;16.77;;
73359;SDS011;63092;43.582;19.528;2022-12-20T14:48:46;33.80;;;20.58;;
73359;SDS011;63092;43.582;19.528;2022-12-20T14:51:17;29.88;;;16.95;;
73359;SDS011;63092;43.582;19.528;2022-12-20T14:53:45;48.15;;;26.90;;
73359;SDS011;63092;43.582;19.528;2022-12-20T14:56:16;38.50;;;20.92;;
73359;SDS011;63092;43.582;19.528;2022-12-20T14:58:44;42.65;;;21.60;;
73359;SDS011;63092;43.582;19.528;2022-12-20T15:03:47;50.43;;;28.10;;
73359;SDS011;63092;43.582;19.528;2022-12-20T15:09:10;44.70;;;26.50;;
73359;SDS011;63092;43.582;19.528;2022-12-20T15:11:36;52.00;;;28.27;;
73359;SDS011;63092;43.582;19.528;2022-12-20T15:14:02;78.03;;;35.80;;
73359;SDS011;63092;43.582;19.528;2022-12-20T15:16:51;60.88;;;32.67;;
73359;SDS011;63092;43.582;19.528;2022-12-20T15:19:17;152.13;;;63.50;;
73359;SDS011;63092;43.582;19.528;2022-12-20T15:21:43;88.43;;;42.30;;
73359;SDS011;63092;43.582;19.528;2022-12-20T15:24:13;56.97;;;27.58;;
73359;SDS011;63092;43.582;19.528;2022-12-20T15:26:41;103.15;;;48.10;;
73359;SDS011;63092;43.582;19.528;2022-12-20T15:29:11;98.30;;;46.53;;
73359;SDS011;63092;43.582;19.528;2022-12-20T15:31:41;147.98;;;62.47;;
73359;SDS011;63092;43.582;19.528;2022-12-20T15:34:12;47.08;;;26.08;;
73359;SDS011;63092;43.582;19.528;2022-12-20T15:36:47;55.47;;;27.70;;
73359;SDS011;63092;43.582;19.528;2022-12-20T15:39:13;44.97;;;22.75;;
73359;SDS011;63092;43.582;19.528;2022-12-20T15:41:39;77.85;;;41.47;;
73359;SDS011;63092;43.582;19.528;2022-12-20T15:44:20;42.22;;;22.35;;
73359;SDS011;63092;43.582;19.528;2022-12-20T15:46:48;44.20;;;22.08;;
73359;SDS011;63092;43.582;19.528;2022-12-20T15:49:16;34.20;;;20.25;;
73359;SDS011;63092;43.582;19.528;2022-12-20T15:51:44;170.90;;;56.28;;
73359;SDS011;63092;43.582;19.528;2022-12-20T15:54:22;165.57;;;67.77;;
73359;SDS011;63092;43.582;19.528;2022-12-20T15:59:17;48.08;;;23.65;;
73359;SDS011;63092;43.582;19.528;2022-12-20T16:01:43;110.30;;;52.25;;
73359;SDS011;63092;43.582;19.528;2022-12-20T16:04:13;144.40;;;78.22;;
73359;SDS011;63092;43.582;19.528;2022-12-20T16:06:41;52.83;;;28.80;;
73359;SDS011;63092;43.582;19.528;2022-12-20T16:09:07;44.97;;;23.02;;
73359;SDS011;63092;43.582;19.528;2022-12-20T16:11:33;50.20;;;26.67;;
73359;SDS011;63092;43.582;19.528;2022-12-20T16:13:59;40.90;;;22.52;;
73359;SDS011;63092;43.582;19.528;2022-12-20T16:16:26;62.45;;;35.03;;
73359;SDS011;63092;43.582;19.528;2022-12-20T16:18:57;49.38;;;28.83;;
73359;SDS011;63092;43.582;19.528;2022-12-20T16:21:24;62.08;;;29.38;;
73359;SDS011;63092;43.582;19.528;2022-12-20T16:23:51;87.18;;;44.20;;
73359;SDS011;63092;43.582;19.528;2022-12-20T16:26:19;104.60;;;50.42;;
73359;SDS011;63092;43.582;19.528;2022-12-20T16:28:46;56.95;;;31.08;;
73359;SDS011;63092;43.582;19.528;2022-12-20T16:33:42;75.43;;;37.50;;
73359;SDS011;63092;43.582;19.528;2022-12-20T16:36:11;39.47;;;22.17;;